Terminal Aerodrome Forecast
Issued by NWS Pueblo, CO

Home | Current Version | Previous Version | Text Only | Print | Product List | Glossary On
Versions: 1 2 3 4 5 6 7 8 9 10 11 12 13 14 15 16 17 18
000
FTUS45 KPUB 231725
TAFCOS
TAF
KCOS 231725Z 2318/2418 17009KT P6SM FEW200
     FM240100 12006KT P6SM FEW120 FEW200
     FM240600 01007KT P6SM FEW200
     FM241600 16008KT P6SM FEW200=

USA.gov is the U.S. government's official web portal to all federal, state and local government web resources and services.